createdAt,value
2016-07-08T00:00:45.500Z,1001.97
2016-07-08T00:01:45.519Z,1001.94
2016-07-08T00:02:45.541Z,1001.92
2016-07-08T00:03:45.559Z,1001.92
2016-07-08T00:04:45.579Z,1001.88
2016-07-08T00:05:45.600Z,1001.92
2016-07-08T00:06:45.619Z,1001.93
2016-07-08T00:07:45.638Z,1001.91
2016-07-08T00:08:45.654Z,1001.95
2016-07-08T00:09:45.677Z,1001.9
2016-07-08T00:10:45.700Z,1001.86
2016-07-08T00:11:45.718Z,1001.87
2016-07-08T00:12:45.738Z,1001.83
2016-07-08T00:13:45.756Z,1001.87
2016-07-08T00:14:45.776Z,1001.87
2016-07-08T00:15:45.798Z,1001.91
2016-07-08T00:16:45.817Z,1001.91
2016-07-08T00:17:45.835Z,1001.94
2016-07-08T00:18:45.857Z,1001.99
2016-07-08T00:19:45.877Z,1001.98
2016-07-08T00:20:45.897Z,1001.97
2016-07-08T00:21:45.919Z,1001.96
2016-07-08T00:22:45.939Z,1001.92
2016-07-08T00:23:45.958Z,1001.9
2016-07-08T00:24:45.977Z,1001.87
2016-07-08T00:25:46.000Z,1001.83
2016-07-08T00:26:46.019Z,1001.82
2016-07-08T00:27:46.038Z,1001.83
2016-07-08T00:28:46.056Z,1001.83
2016-07-08T00:29:46.079Z,1001.82
2016-07-08T00:30:46.101Z,1001.82
2016-07-08T00:31:46.115Z,1001.81
2016-07-08T00:32:46.137Z,1001.8
2016-07-08T00:33:46.160Z,1001.8
2016-07-08T00:34:46.177Z,1001.85
2016-07-08T00:35:46.199Z,1001.83
2016-07-08T00:36:46.216Z,1001.81
2016-07-08T00:37:46.237Z,1001.77
2016-07-08T00:38:46.259Z,1001.77
2016-07-08T00:39:46.279Z,1001.78
2016-07-08T00:40:46.297Z,1001.78
2016-07-08T00:41:46.320Z,1001.73
2016-07-08T00:42:46.338Z,1001.74
2016-07-08T00:43:46.359Z,1001.75
2016-07-08T00:44:46.377Z,1001.75
2016-07-08T00:45:46.401Z,1001.74
2016-07-08T00:46:46.419Z,1001.66
2016-07-08T00:47:46.442Z,1001.65
2016-07-08T00:48:46.459Z,1001.61
2016-07-08T00:49:46.476Z,1001.58
2016-07-08T00:50:46.500Z,1001.56
2016-07-08T00:51:46.522Z,1001.53
2016-07-08T00:52:46.538Z,1001.54
2016-07-08T00:53:46.557Z,1001.55
2016-07-08T00:54:46.578Z,1001.5
2016-07-08T00:55:46.598Z,1001.51
2016-07-08T00:56:46.615Z,1001.49
2016-07-08T00:57:46.637Z,1001.46
2016-07-08T00:58:46.660Z,1001.45
2016-07-08T00:59:46.678Z,1001.45
2016-07-08T01:00:46.701Z,1001.44
2016-07-08T01:01:46.716Z,1001.42
2016-07-08T01:02:46.739Z,1001.39
2016-07-08T01:03:46.755Z,1001.38
2016-07-08T01:04:46.774Z,1001.38
2016-07-08T01:05:46.796Z,1001.44
2016-07-08T01:06:46.815Z,1001.43
2016-07-08T01:07:46.837Z,1001.46
2016-07-08T01:08:46.853Z,1001.45
2016-07-08T01:09:46.878Z,1001.38
2016-07-08T01:10:46.894Z,1001.4
2016-07-08T01:11:46.912Z,1001.36
2016-07-08T01:12:46.935Z,1001.36
2016-07-08T01:13:46.957Z,1001.36
2016-07-08T01:14:46.973Z,1001.37
2016-07-08T01:15:46.992Z,1001.39
2016-07-08T01:16:47.016Z,1001.38
2016-07-08T01:17:47.033Z,1001.41
2016-07-08T01:18:47.054Z,1001.4
2016-07-08T01:19:47.071Z,1001.43
2016-07-08T01:20:47.093Z,1001.38
2016-07-08T01:21:47.116Z,1001.4
2016-07-08T01:22:47.131Z,1001.38
2016-07-08T01:23:47.153Z,1001.37
2016-07-08T01:24:47.173Z,1001.37
2016-07-08T01:25:47.190Z,1001.34
2016-07-08T01:26:47.209Z,1001.31
2016-07-08T01:27:47.232Z,1001.29
2016-07-08T01:28:47.254Z,1001.3
2016-07-08T01:29:47.269Z,1001.29
2016-07-08T01:30:47.289Z,1001.3
2016-07-08T01:31:47.310Z,1001.21
2016-07-08T01:32:47.327Z,1001.16
2016-07-08T01:33:47.349Z,1001.13
2016-07-08T01:34:47.368Z,1001.15
2016-07-08T01:35:47.388Z,1001.17
2016-07-08T01:36:47.405Z,1001.16
2016-07-08T01:37:47.430Z,1001.19
2016-07-08T01:38:47.447Z,1001.2
2016-07-08T01:39:47.467Z,1001.19
2016-07-08T01:40:47.485Z,1001.15
2016-07-08T01:41:47.503Z,1001.17
2016-07-08T01:42:47.527Z,1001.22
2016-07-08T01:43:47.544Z,1001.2
2016-07-08T01:44:47.562Z,1001.18
2016-07-08T01:45:47.584Z,1001.19
2016-07-08T01:46:47.605Z,1001.16
2016-07-08T01:47:47.627Z,1001.13
2016-07-08T01:48:47.642Z,1001.09
2016-07-08T01:49:47.663Z,1001.08
2016-07-08T01:50:47.687Z,1001.02
2016-07-08T01:51:47.704Z,1001.02
2016-07-08T01:52:47.721Z,1000.96
2016-07-08T01:53:47.741Z,1000.97
2016-07-08T01:54:47.760Z,1000.97
2016-07-08T01:55:47.781Z,1000.92
2016-07-08T01:56:47.800Z,1000.93
2016-07-08T01:57:47.823Z,1000.96
2016-07-08T01:58:47.840Z,1000.93
2016-07-08T01:59:47.863Z,1000.94
2016-07-08T02:00:47.883Z,1000.96
2016-07-08T02:01:47.899Z,1000.91
2016-07-08T02:02:47.921Z,1000.91
2016-07-08T02:03:47.938Z,1000.9
2016-07-08T02:04:47.962Z,1000.92
2016-07-08T02:05:47.979Z,1000.87
2016-07-08T02:06:47.999Z,1000.87
2016-07-08T02:07:48.020Z,1000.86
2016-07-08T02:08:48.040Z,1000.86
2016-07-08T02:09:48.059Z,1000.83
2016-07-08T02:10:48.077Z,1000.8
2016-07-08T02:11:48.097Z,1000.79
2016-07-08T02:12:48.118Z,1000.8
2016-07-08T02:13:48.138Z,1000.74
2016-07-08T02:14:48.157Z,1000.68
2016-07-08T02:15:48.173Z,1000.67
2016-07-08T02:16:48.197Z,1000.66
2016-07-08T02:17:48.215Z,1000.71
2016-07-08T02:18:48.235Z,1000.71
2016-07-08T02:19:48.257Z,1000.67
2016-07-08T02:20:48.276Z,1000.71
2016-07-08T02:21:48.298Z,1000.66
2016-07-08T02:22:48.315Z,1000.7
2016-07-08T02:23:48.335Z,1000.67
2016-07-08T02:24:48.356Z,1000.64
2016-07-08T02:25:48.375Z,1000.65
2016-07-08T02:26:48.394Z,1000.6
2016-07-08T02:27:48.413Z,1000.63
2016-07-08T02:28:48.432Z,1000.63
2016-07-08T02:29:48.453Z,1000.6
2016-07-08T02:30:48.476Z,1000.61
2016-07-08T02:31:48.494Z,1000.64
2016-07-08T02:32:48.512Z,1000.62
2016-07-08T02:33:48.531Z,1000.68
2016-07-08T02:34:48.549Z,1000.63
2016-07-08T02:35:48.572Z,1000.69
2016-07-08T02:36:48.591Z,1000.64
2016-07-08T02:37:48.609Z,1000.7
2016-07-08T02:38:48.629Z,1000.69
2016-07-08T02:39:48.650Z,1000.65
2016-07-08T02:40:48.669Z,1000.69
2016-07-08T02:41:48.691Z,1000.71
2016-07-08T02:42:48.711Z,1000.7
2016-07-08T02:43:48.727Z,1000.68
2016-07-08T02:44:48.749Z,1000.7
2016-07-08T02:45:48.771Z,1000.64
2016-07-08T02:46:48.791Z,1000.65
2016-07-08T02:47:48.811Z,1000.58
2016-07-08T02:48:48.832Z,1000.6
2016-07-08T02:49:48.850Z,1000.58
2016-07-08T02:50:48.867Z,1000.61
2016-07-08T02:51:48.889Z,1000.56
2016-07-08T02:52:48.908Z,1000.55
2016-07-08T02:53:48.930Z,1000.55
2016-07-08T02:54:48.948Z,1000.52
2016-07-08T02:55:48.963Z,1000.49
2016-07-08T02:56:48.988Z,1000.47
2016-07-08T02:57:49.007Z,1000.49
2016-07-08T02:58:49.029Z,1000.47
2016-07-08T02:59:49.045Z,1000.5
2016-07-08T03:00:49.069Z,1000.48
2016-07-08T03:01:49.083Z,1000.45
2016-07-08T03:02:49.103Z,1000.48
2016-07-08T03:03:49.142Z,1000.41
2016-07-08T03:04:49.144Z,1000.42
2016-07-08T03:05:49.164Z,1000.42
2016-07-08T03:06:49.182Z,1000.39
2016-07-08T03:07:49.204Z,1000.36
2016-07-08T03:08:49.221Z,1000.39
2016-07-08T03:09:49.243Z,1000.41
2016-07-08T03:10:49.261Z,1000.37
2016-07-08T03:11:49.282Z,1000.39
2016-07-08T03:12:49.304Z,1000.35
2016-07-08T03:13:49.321Z,1000.4
2016-07-08T03:14:49.344Z,1000.35
2016-07-08T03:15:49.362Z,1000.36
2016-07-08T03:16:49.379Z,1000.35
2016-07-08T03:17:49.402Z,1000.34
2016-07-08T03:18:49.420Z,1000.36
2016-07-08T03:19:49.440Z,1000.34
2016-07-08T03:20:49.458Z,1000.32
2016-07-08T03:21:49.481Z,1000.34
2016-07-08T03:22:49.503Z,1000.33
2016-07-08T03:23:49.520Z,1000.32
2016-07-08T03:24:49.538Z,1000.34
2016-07-08T03:25:49.593Z,1000.32
2016-07-08T03:26:49.576Z,1000.34
2016-07-08T03:27:49.645Z,1000.28
2016-07-08T03:28:49.613Z,1000.31
2016-07-08T03:29:49.635Z,1000.3
2016-07-08T03:30:49.657Z,1000.26
2016-07-08T03:31:49.672Z,1000.3
2016-07-08T03:32:49.694Z,1000.25
2016-07-08T03:33:49.717Z,1000.27
2016-07-08T03:34:49.733Z,1000.24
2016-07-08T03:35:49.751Z,1000.24
2016-07-08T03:36:49.774Z,1000.24
2016-07-08T03:37:49.794Z,1000.26
2016-07-08T03:38:49.810Z,1000.25
2016-07-08T03:39:49.834Z,1000.24
2016-07-08T03:40:49.853Z,1000.24
2016-07-08T03:41:49.873Z,1000.17
2016-07-08T03:42:49.890Z,1000.19
2016-07-08T03:43:49.910Z,1000.21
2016-07-08T03:44:49.935Z,1000.2
2016-07-08T03:45:49.953Z,1000.18
2016-07-08T03:46:49.972Z,1000.16
2016-07-08T03:47:49.993Z,1000.17
2016-07-08T03:48:50.010Z,1000.19
2016-07-08T03:49:50.029Z,1000.19
2016-07-08T03:50:50.053Z,1000.18
2016-07-08T03:51:50.066Z,1000.15
2016-07-08T03:52:50.089Z,1000.11
2016-07-08T03:53:50.109Z,1000.07
2016-07-08T03:54:50.129Z,1000.07
2016-07-08T03:55:50.145Z,1000.08
2016-07-08T03:56:50.166Z,1000.06
2016-07-08T03:57:50.189Z,1000
2016-07-08T03:58:50.207Z,1000.01
2016-07-08T03:59:50.231Z,1000.01
2016-07-08T04:00:50.245Z,999.96
2016-07-08T04:01:50.269Z,1000.02
2016-07-08T04:02:50.285Z,999.99
2016-07-08T04:03:50.306Z,999.94
2016-07-08T04:04:50.328Z,999.99
2016-07-08T04:05:50.347Z,999.98
2016-07-08T04:06:50.364Z,999.95
2016-07-08T04:07:50.391Z,999.99
2016-07-08T04:08:50.404Z,1000.01
2016-07-08T04:09:50.426Z,999.96
2016-07-08T04:10:50.445Z,999.98
2016-07-08T04:11:50.467Z,999.93
2016-07-08T04:12:50.486Z,999.92
2016-07-08T04:13:50.504Z,999.9
2016-07-08T04:14:50.524Z,999.92
2016-07-08T04:15:50.544Z,999.95
2016-07-08T04:16:50.562Z,999.98
2016-07-08T04:17:50.580Z,999.93
2016-07-08T04:18:50.605Z,999.92
2016-07-08T04:19:50.621Z,999.93
2016-07-08T04:20:50.642Z,999.88
2016-07-08T04:21:50.662Z,999.9
2016-07-08T04:22:50.680Z,999.86
2016-07-08T04:23:50.704Z,999.86
2016-07-08T04:24:50.726Z,999.83
2016-07-08T04:25:50.745Z,999.84
2016-07-08T04:26:50.764Z,999.82
2016-07-08T04:27:50.782Z,999.82
2016-07-08T04:28:50.805Z,999.84
2016-07-08T04:29:50.825Z,999.77
2016-07-08T04:30:50.840Z,999.81
2016-07-08T04:31:50.860Z,999.85
2016-07-08T04:32:50.884Z,999.82
2016-07-08T04:33:50.904Z,999.86
2016-07-08T04:34:50.925Z,999.88
2016-07-08T04:35:50.940Z,999.84
2016-07-08T04:36:50.963Z,999.77
2016-07-08T04:37:50.982Z,999.76
2016-07-08T04:38:51.005Z,999.72
2016-07-08T04:39:51.020Z,999.72
2016-07-08T04:40:51.041Z,999.7
2016-07-08T04:41:51.061Z,999.71
2016-07-08T04:42:51.079Z,999.7
2016-07-08T04:43:51.100Z,999.72
2016-07-08T04:44:51.121Z,999.73
2016-07-08T04:45:51.141Z,999.77
2016-07-08T04:46:51.163Z,999.75
2016-07-08T04:47:51.185Z,999.76
2016-07-08T04:48:51.203Z,999.76
2016-07-08T04:49:51.222Z,999.8
2016-07-08T04:50:51.244Z,999.82
2016-07-08T04:51:51.267Z,999.83
2016-07-08T04:52:51.284Z,999.79
2016-07-08T04:53:51.300Z,999.8
2016-07-08T04:54:51.325Z,999.74
2016-07-08T04:55:51.345Z,999.73
2016-07-08T04:56:51.362Z,999.76
2016-07-08T04:57:51.386Z,999.7
2016-07-08T04:58:51.407Z,999.68
2016-07-08T04:59:51.425Z,999.65
2016-07-08T05:00:51.445Z,999.59
2016-07-08T05:01:51.461Z,999.58
2016-07-08T05:02:51.482Z,999.59
2016-07-08T05:03:51.503Z,999.6
2016-07-08T05:04:51.521Z,999.63
2016-07-08T05:05:51.541Z,999.65
2016-07-08T05:06:51.567Z,999.65
2016-07-08T05:07:51.579Z,999.67
2016-07-08T05:08:51.602Z,999.72
2016-07-08T05:09:51.620Z,999.77
2016-07-08T05:10:51.643Z,999.76
2016-07-08T05:11:51.662Z,999.82
2016-07-08T05:12:51.681Z,999.81
2016-07-08T05:13:51.704Z,999.79
2016-07-08T05:14:51.724Z,999.8
2016-07-08T05:15:51.740Z,999.82
2016-07-08T05:16:51.802Z,999.77
2016-07-08T05:17:51.784Z,999.81
2016-07-08T05:18:51.808Z,999.8
2016-07-08T05:19:51.825Z,999.8
2016-07-08T05:20:51.850Z,999.81
2016-07-08T05:21:51.870Z,999.79
2016-07-08T05:22:51.889Z,999.83
2016-07-08T05:23:51.911Z,999.73
2016-07-08T05:24:51.932Z,999.71
2016-07-08T05:25:51.954Z,999.75
2016-07-08T05:26:51.972Z,999.79
2016-07-08T05:27:51.993Z,999.75
2016-07-08T05:28:52.020Z,999.75
2016-07-08T05:29:52.038Z,999.74
2016-07-08T05:30:52.062Z,999.78
2016-07-08T05:31:52.081Z,999.73
2016-07-08T05:32:52.105Z,999.75
2016-07-08T05:33:52.126Z,999.72
2016-07-08T05:34:52.146Z,999.71
2016-07-08T05:35:52.168Z,999.68
2016-07-08T05:36:52.191Z,999.68
2016-07-08T05:37:52.213Z,999.69
2016-07-08T05:38:52.234Z,999.73
2016-07-08T05:39:52.259Z,999.76
2016-07-08T05:40:52.280Z,999.78
2016-07-08T05:41:52.303Z,999.76
2016-07-08T05:42:52.323Z,999.75
2016-07-08T05:43:52.348Z,999.73
2016-07-08T05:44:52.367Z,999.69
2016-07-08T05:45:52.390Z,999.63
2016-07-08T05:46:52.415Z,999.67
2016-07-08T05:47:52.436Z,999.61
2016-07-08T05:48:52.454Z,999.61
2016-07-08T05:49:52.477Z,999.59
2016-07-08T05:50:52.503Z,999.55
2016-07-08T05:51:52.523Z,999.53
2016-07-08T05:52:52.542Z,999.53
2016-07-08T05:53:52.569Z,999.55
2016-07-08T05:54:52.590Z,999.56
2016-07-08T05:55:52.610Z,999.53
2016-07-08T05:56:52.635Z,999.54
2016-07-08T05:57:52.657Z,999.52
2016-07-08T05:58:52.674Z,999.5
2016-07-08T05:59:52.699Z,999.46
2016-07-08T06:00:52.719Z,999.47
2016-07-08T06:01:52.743Z,999.47
2016-07-08T06:02:52.766Z,999.5
2016-07-08T06:03:52.787Z,999.48
2016-07-08T06:04:52.810Z,999.46
2016-07-08T06:05:52.833Z,999.49
2016-07-08T06:06:52.852Z,999.51
2016-07-08T06:07:52.873Z,999.45
2016-07-08T06:08:52.898Z,999.48
2016-07-08T06:09:52.919Z,999.44
2016-07-08T06:10:52.940Z,999.49
2016-07-08T06:11:52.966Z,999.46
2016-07-08T06:12:52.988Z,999.43
2016-07-08T06:13:53.010Z,999.43
2016-07-08T06:14:53.031Z,999.42
2016-07-08T06:15:53.056Z,999.38
2016-07-08T06:16:53.075Z,999.4
2016-07-08T06:17:53.096Z,999.43
2016-07-08T06:18:53.125Z,999.4
2016-07-08T06:19:53.147Z,999.41
2016-07-08T06:20:53.169Z,999.41
2016-07-08T06:21:53.188Z,999.42
2016-07-08T06:22:53.214Z,999.37
2016-07-08T06:23:53.234Z,999.34
2016-07-08T06:24:53.259Z,999.36
2016-07-08T06:25:53.278Z,999.37
2016-07-08T06:26:53.302Z,999.35
2016-07-08T06:27:53.326Z,999.34
2016-07-08T06:28:53.346Z,999.34
2016-07-08T06:29:53.368Z,999.34
2016-07-08T06:30:53.390Z,999.31
2016-07-08T06:31:53.411Z,999.3
2016-07-08T06:32:53.435Z,999.3
2016-07-08T06:33:53.456Z,999.29
2016-07-08T06:34:53.480Z,999.29
2016-07-08T06:35:53.503Z,999.29
2016-07-08T06:36:53.522Z,999.25
2016-07-08T06:37:53.545Z,999.21
2016-07-08T06:38:53.569Z,999.23
2016-07-08T06:39:53.589Z,999.25
2016-07-08T06:40:53.611Z,999.24
2016-07-08T06:41:53.633Z,999.26
2016-07-08T06:42:53.657Z,999.27
2016-07-08T06:43:53.680Z,999.28
2016-07-08T06:44:53.703Z,999.28
2016-07-08T06:45:53.724Z,999.32
2016-07-08T06:46:53.751Z,999.33
2016-07-08T06:47:53.767Z,999.37
2016-07-08T06:48:53.791Z,999.39
2016-07-08T06:49:53.814Z,999.35
2016-07-08T06:50:53.834Z,999.4
2016-07-08T06:51:53.857Z,999.38
2016-07-08T06:52:53.881Z,999.41
2016-07-08T06:53:53.941Z,999.41
2016-07-08T06:54:53.973Z,999.42
2016-07-08T06:55:53.975Z,999.45
2016-07-08T06:56:54.022Z,999.42
2016-07-08T06:57:54.041Z,999.43
2016-07-08T06:58:54.040Z,999.41
2016-07-08T06:59:54.045Z,999.41
2016-07-08T07:00:54.064Z,999.39
2016-07-08T07:01:54.080Z,999.38
2016-07-08T07:02:54.105Z,999.38
2016-07-08T07:03:54.127Z,999.43
2016-07-08T07:04:54.147Z,999.43
2016-07-08T07:05:54.168Z,999.47
2016-07-08T07:06:54.195Z,999.44
2016-07-08T07:07:54.215Z,999.44
2016-07-08T07:08:54.238Z,999.48
2016-07-08T07:09:54.259Z,999.5
2016-07-08T07:10:54.282Z,999.49
2016-07-08T07:11:54.307Z,999.51
2016-07-08T07:12:54.328Z,999.51
2016-07-08T07:13:54.345Z,999.49
2016-07-08T07:14:54.374Z,999.48
2016-07-08T07:15:54.395Z,999.49
2016-07-08T07:16:54.418Z,999.47
2016-07-08T07:17:54.440Z,999.46
2016-07-08T07:18:54.466Z,999.49
2016-07-08T07:19:54.488Z,999.48
2016-07-08T07:20:54.510Z,999.45
2016-07-08T07:21:54.529Z,999.46
2016-07-08T07:22:54.550Z,999.47
2016-07-08T07:23:54.576Z,999.46
2016-07-08T07:24:54.597Z,999.48
2016-07-08T07:25:54.621Z,999.53
2016-07-08T07:26:54.644Z,999.46
2016-07-08T07:27:54.671Z,999.46
2016-07-08T07:28:54.692Z,999.46
2016-07-08T07:29:54.714Z,999.43
2016-07-08T07:30:54.736Z,999.47
2016-07-08T07:31:54.758Z,999.42
2016-07-08T07:32:54.782Z,999.43
2016-07-08T07:33:54.802Z,999.4
2016-07-08T07:34:54.829Z,999.38
2016-07-08T07:35:54.850Z,999.35
2016-07-08T07:36:54.874Z,999.37
2016-07-08T07:37:54.900Z,999.31
2016-07-08T07:38:54.921Z,999.27
2016-07-08T07:39:54.944Z,999.25
2016-07-08T07:40:54.968Z,999.26
2016-07-08T07:41:54.993Z,999.3
2016-07-08T07:42:55.021Z,999.28
2016-07-08T07:43:55.036Z,999.22
2016-07-08T07:44:55.064Z,999.25
2016-07-08T07:45:55.083Z,999.18
2016-07-08T07:46:55.107Z,999.13
2016-07-08T07:47:55.134Z,999.13
2016-07-08T07:48:55.155Z,999.08
2016-07-08T07:49:55.180Z,999.12
2016-07-08T07:50:55.204Z,999.15
2016-07-08T07:51:55.225Z,999.1
2016-07-08T07:52:55.250Z,999.12
2016-07-08T07:53:55.275Z,999.08
2016-07-08T07:54:55.295Z,999.07
2016-07-08T07:55:55.321Z,999.09
2016-07-08T07:56:55.342Z,999.07
2016-07-08T07:57:55.363Z,999.06
2016-07-08T07:58:55.392Z,999.02
2016-07-08T07:59:55.417Z,999.02
2016-07-08T08:00:55.438Z,998.99
2016-07-08T08:01:55.460Z,998.99
2016-07-08T08:02:55.486Z,999.03
2016-07-08T08:03:55.505Z,999.04
2016-07-08T08:04:55.531Z,999.05
2016-07-08T08:05:55.550Z,999.03
2016-07-08T08:06:55.576Z,999.05
2016-07-08T08:07:55.600Z,999.03
2016-07-08T08:08:55.623Z,999.02
2016-07-08T08:09:55.645Z,998.99
2016-07-08T08:10:55.673Z,998.97
2016-07-08T08:11:55.695Z,998.94
2016-07-08T08:12:55.716Z,998.93
2016-07-08T08:13:55.740Z,998.95
2016-07-08T08:14:55.761Z,998.98
2016-07-08T08:15:55.786Z,998.98
2016-07-08T08:16:55.812Z,998.96
2016-07-08T08:17:55.837Z,998.97
2016-07-08T08:18:55.859Z,998.92
2016-07-08T08:19:55.885Z,998.95
2016-07-08T08:20:55.906Z,998.89
2016-07-08T08:21:55.930Z,998.89
2016-07-08T08:22:55.954Z,998.92
2016-07-08T08:23:55.977Z,998.93
2016-07-08T08:24:56.000Z,998.95
2016-07-08T08:25:56.024Z,998.91
2016-07-08T08:26:56.050Z,998.93
2016-07-08T08:27:56.072Z,998.9
2016-07-08T08:28:56.098Z,998.9
2016-07-08T08:29:56.120Z,998.91
2016-07-08T08:30:56.146Z,998.87
2016-07-08T08:31:56.169Z,998.83
2016-07-08T08:32:56.194Z,998.83
2016-07-08T08:33:56.211Z,998.77
2016-07-08T08:34:56.236Z,998.83
2016-07-08T08:35:56.264Z,998.9
2016-07-08T08:36:56.288Z,998.83
2016-07-08T08:37:56.306Z,998.88
2016-07-08T08:38:56.334Z,998.88
2016-07-08T08:39:56.358Z,998.84
2016-07-08T08:40:56.383Z,998.88
2016-07-08T08:41:56.409Z,998.82
2016-07-08T08:42:56.432Z,998.84
2016-07-08T08:43:56.457Z,998.85
2016-07-08T08:44:56.476Z,998.91
2016-07-08T08:45:56.500Z,998.92
2016-07-08T08:46:56.528Z,998.89
2016-07-08T08:47:56.551Z,998.92
2016-07-08T08:48:56.578Z,998.9
2016-07-08T08:49:56.601Z,998.88
2016-07-08T08:50:56.626Z,998.81
2016-07-08T08:51:56.644Z,998.82
2016-07-08T08:52:56.673Z,998.86
2016-07-08T08:53:56.695Z,998.89
2016-07-08T08:54:56.720Z,998.83
2016-07-08T08:55:56.753Z,998.86
2016-07-08T08:56:56.769Z,998.86
2016-07-08T08:57:56.795Z,998.82
2016-07-08T08:58:56.814Z,998.85
2016-07-08T08:59:56.839Z,998.87
2016-07-08T09:00:56.865Z,998.91
2016-07-08T09:01:56.890Z,998.95
2016-07-08T09:02:56.917Z,998.95
2016-07-08T09:03:56.938Z,999
2016-07-08T09:04:56.965Z,998.95
2016-07-08T09:05:56.988Z,998.93
2016-07-08T09:06:57.016Z,998.94
2016-07-08T09:07:57.041Z,998.95
2016-07-08T09:08:57.064Z,998.9
2016-07-08T09:09:57.089Z,998.92
2016-07-08T09:10:57.114Z,998.9
2016-07-08T09:11:57.140Z,998.88
2016-07-08T09:12:57.163Z,998.9
2016-07-08T09:13:57.193Z,998.87
2016-07-08T09:14:57.216Z,998.93
2016-07-08T09:15:57.239Z,998.95
2016-07-08T09:16:57.267Z,998.98
2016-07-08T09:17:57.290Z,998.92
2016-07-08T09:18:57.316Z,998.88
2016-07-08T09:19:57.339Z,998.88
2016-07-08T09:20:57.365Z,998.89
2016-07-08T09:21:57.394Z,998.92
2016-07-08T09:22:57.414Z,998.99
2016-07-08T09:23:57.439Z,998.99
2016-07-08T09:24:57.462Z,998.97
2016-07-08T09:25:57.489Z,998.92
2016-07-08T09:26:57.514Z,998.94
2016-07-08T09:27:57.543Z,998.95
2016-07-08T09:28:57.561Z,998.91
2016-07-08T09:29:57.587Z,998.98
2016-07-08T09:30:57.612Z,999.02
2016-07-08T09:31:57.637Z,999.03
2016-07-08T09:32:57.663Z,998.95
2016-07-08T09:33:57.685Z,998.93
2016-07-08T09:34:57.713Z,998.92
2016-07-08T09:35:57.738Z,999
2016-07-08T09:36:57.763Z,998.95
2016-07-08T09:37:57.785Z,998.88
2016-07-08T09:38:57.812Z,998.87
2016-07-08T09:39:57.833Z,998.89
2016-07-08T09:40:57.859Z,998.82
2016-07-08T09:41:57.884Z,998.84
2016-07-08T09:42:57.908Z,998.81
2016-07-08T09:43:57.934Z,998.85
2016-07-08T09:44:57.958Z,998.85
2016-07-08T09:45:57.982Z,998.86
2016-07-08T09:46:58.007Z,998.89
2016-07-08T09:47:58.031Z,998.88
2016-07-08T09:48:58.058Z,998.88
2016-07-08T09:49:58.078Z,998.88
2016-07-08T09:50:58.102Z,998.92
2016-07-08T09:51:58.130Z,998.91
2016-07-08T09:52:58.152Z,998.88
2016-07-08T09:53:58.187Z,998.89
2016-07-08T09:54:58.204Z,998.88
2016-07-08T09:55:58.224Z,998.85
2016-07-08T09:56:58.248Z,998.87
2016-07-08T09:57:58.271Z,998.89
2016-07-08T09:58:58.299Z,998.86
2016-07-08T09:59:58.322Z,998.9
2016-07-08T10:00:58.346Z,998.91
2016-07-08T10:01:58.370Z,998.87
2016-07-08T10:02:58.394Z,998.92
2016-07-08T10:03:58.419Z,998.94
2016-07-08T10:04:58.444Z,998.95
2016-07-08T10:05:58.470Z,998.98
2016-07-08T10:06:58.491Z,998.99
2016-07-08T10:07:58.519Z,998.95
2016-07-08T10:08:58.539Z,998.97
2016-07-08T10:09:58.564Z,998.95
2016-07-08T10:10:58.586Z,998.91
2016-07-08T10:11:58.612Z,998.94
2016-07-08T10:12:58.638Z,998.95
2016-07-08T10:13:58.665Z,998.92
2016-07-08T10:14:58.687Z,998.89
2016-07-08T10:15:58.727Z,998.9
2016-07-08T10:16:58.737Z,998.85
2016-07-08T10:17:58.758Z,998.83
2016-07-08T10:18:58.784Z,998.83
2016-07-08T10:19:58.808Z,998.85
2016-07-08T10:20:58.838Z,998.9
2016-07-08T10:21:58.855Z,998.82
2016-07-08T10:22:58.882Z,998.85
2016-07-08T10:23:58.907Z,998.86
2016-07-08T10:24:58.933Z,998.88
2016-07-08T10:25:58.953Z,998.92
2016-07-08T10:26:58.980Z,998.88
2016-07-08T10:27:59.004Z,998.85
2016-07-08T10:28:59.027Z,998.86
2016-07-08T10:29:59.056Z,998.77
2016-07-08T10:30:59.073Z,998.74
2016-07-08T10:31:59.101Z,998.72
2016-07-08T10:32:59.128Z,998.83
2016-07-08T10:33:59.149Z,998.76
2016-07-08T10:34:59.173Z,998.77
2016-07-08T10:35:59.202Z,998.76
2016-07-08T10:36:59.229Z,998.71
2016-07-08T10:37:59.250Z,998.72
2016-07-08T10:38:59.273Z,998.72
2016-07-08T10:39:59.297Z,998.75
2016-07-08T10:40:59.330Z,998.79
2016-07-08T10:41:59.349Z,998.74
2016-07-08T10:42:59.377Z,998.77
2016-07-08T10:43:59.401Z,998.74
2016-07-08T10:44:59.426Z,998.78
2016-07-08T10:45:59.450Z,998.73
2016-07-08T10:46:59.477Z,998.73
2016-07-08T10:47:59.503Z,998.71
2016-07-08T10:48:59.525Z,998.66
2016-07-08T10:49:59.552Z,998.65
2016-07-08T10:50:59.578Z,998.61
2016-07-08T10:51:59.599Z,998.59
2016-07-08T10:52:59.627Z,998.54
2016-07-08T10:53:59.653Z,998.55
2016-07-08T10:54:59.674Z,998.51
2016-07-08T10:55:59.698Z,998.4
2016-07-08T10:56:59.727Z,998.4
2016-07-08T10:57:59.752Z,998.44
2016-07-08T10:58:59.772Z,998.39
2016-07-08T10:59:59.798Z,998.37
2016-07-08T11:00:59.825Z,998.34
2016-07-08T11:01:59.850Z,998.36
2016-07-08T11:02:59.876Z,998.47
2016-07-08T11:03:59.897Z,998.39
2016-07-08T11:04:59.925Z,998.32
2016-07-08T11:05:59.947Z,998.37
2016-07-08T11:06:59.975Z,998.38
2016-07-08T11:08:00.001Z,998.34
2016-07-08T11:09:00.024Z,998.33
2016-07-08T11:10:00.047Z,998.34
2016-07-08T11:11:00.074Z,998.29
2016-07-08T11:12:00.098Z,998.33
2016-07-08T11:13:00.123Z,998.3
2016-07-08T11:14:12.361Z,998.31
2016-07-08T11:15:53.518Z,998.28
2016-07-08T11:16:42.758Z,998.36
2016-07-08T11:17:42.778Z,998.32
2016-07-08T11:18:42.800Z,998.36
2016-07-08T11:19:42.824Z,998.33
2016-07-08T11:20:42.851Z,998.34
2016-07-08T11:21:42.871Z,998.34
2016-07-08T11:22:42.895Z,998.37
2016-07-08T11:23:42.920Z,998.29
2016-07-08T11:24:42.949Z,998.27
2016-07-08T11:25:42.972Z,998.23
2016-07-08T11:26:42.990Z,998.23
2016-07-08T11:27:43.016Z,998.19
2016-07-08T11:28:43.041Z,998.17
2016-07-08T11:29:43.068Z,998.16
2016-07-08T11:30:43.091Z,998.16
2016-07-08T11:31:43.115Z,998.15
2016-07-08T11:32:43.137Z,998.06
2016-07-08T11:33:43.161Z,998.07
2016-07-08T11:34:43.185Z,998.04
2016-07-08T11:35:43.213Z,998.03
2016-07-08T11:36:43.235Z,998.08
2016-07-08T11:37:43.257Z,998.08
2016-07-08T11:38:43.283Z,998.07
2016-07-08T11:39:43.309Z,998.14
2016-07-08T11:40:43.330Z,998.16
2016-07-08T11:41:43.357Z,998.17
2016-07-08T11:42:43.380Z,998.18
2016-07-08T11:43:43.404Z,998.19
2016-07-08T11:44:43.425Z,998.24
2016-07-08T11:45:43.450Z,998.22
2016-07-08T11:46:43.478Z,998.27
2016-07-08T11:47:43.497Z,998.3
2016-07-08T11:48:43.521Z,998.31
2016-07-08T11:49:43.547Z,998.4
2016-07-08T11:50:43.573Z,998.44
2016-07-08T11:51:43.594Z,998.4
2016-07-08T11:52:43.616Z,998.48
2016-07-08T11:53:43.644Z,998.54
2016-07-08T11:54:43.663Z,998.51
2016-07-08T11:55:43.689Z,998.44
2016-07-08T11:56:43.715Z,998.44
2016-07-08T11:57:43.738Z,998.49
2016-07-08T11:58:43.757Z,998.43
2016-07-08T11:59:43.786Z,998.43
2016-07-08T12:00:43.811Z,998.46
2016-07-08T12:01:43.834Z,998.49
2016-07-08T12:02:43.853Z,998.48
2016-07-08T12:03:43.881Z,998.49
2016-07-08T12:04:43.902Z,998.52
2016-07-08T12:05:43.924Z,998.6
2016-07-08T12:06:43.954Z,998.5
2016-07-08T12:07:43.974Z,998.47
2016-07-08T12:08:43.997Z,998.45
2016-07-08T12:09:44.025Z,998.44
2016-07-08T12:10:44.049Z,998.46
2016-07-08T12:11:44.067Z,998.41
2016-07-08T12:12:44.093Z,998.4
2016-07-08T12:13:44.119Z,998.41
2016-07-08T12:14:44.142Z,998.42
2016-07-08T12:15:44.163Z,998.52
2016-07-08T12:16:44.188Z,998.36
2016-07-08T12:17:44.215Z,998.29
2016-07-08T12:18:44.240Z,998.33
2016-07-08T12:19:44.263Z,998.37
2016-07-08T12:20:44.286Z,998.31
2016-07-08T12:21:44.311Z,998.31
2016-07-08T12:22:44.333Z,998.28
2016-07-08T12:23:44.361Z,998.35
2016-07-08T12:24:44.382Z,998.36